Time;durP1;ratioP1;P1;durP2;ratioP2;P2;SDS_P1;SDS_P2;PMS_P1;PMS_P2;Temp;Humidity;BMP_temperature;BMP_pressure;BME280_temperature;BME280_humidity;BME280_pressure;Samples;Min_cycle;Max_cycle;Signal;HPM_P1;HPM_P2
2022/06/19 04:02:07;;;;;;;14.23;6.60;;;22.50;99.90;;;;;;5268499;23;20967;-67
2022/06/19 04:04:34;;;;;;;9.50;5.73;;;22.40;99.90;;;;;;5016749;28;20850;-66
2022/06/19 04:07:01;;;;;;;12.27;5.87;;;22.30;99.90;;;;;;5017017;28;20452;-65
2022/06/19 04:09:27;;;;;;;19.13;5.10;;;22.30;99.90;;;;;;5016900;28;20448;-66
2022/06/19 04:11:54;;;;;;;11.07;5.63;;;22.30;99.90;;;;;;5016691;28;20472;-65
2022/06/19 04:14:21;;;;;;;17.40;6.37;;;22.30;99.90;;;;;;5016835;28;20482;-65
2022/06/19 04:16:47;;;;;;;10.80;5.23;;;22.40;99.90;;;;;;5016758;28;20484;-65
2022/06/19 04:19:16;;;;;;;11.10;5.87;;;22.40;99.90;;;;;;5016602;28;20479;-66
2022/06/19 04:21:45;;;;;;;10.33;5.23;;;22.40;99.90;;;;;;5016518;28;20477;-66
2022/06/19 04:24:14;;;;;;;8.23;5.33;;;22.40;99.90;;;;;;5016521;28;20457;-66
2022/06/19 04:26:42;;;;;;;12.00;5.33;;;22.40;99.90;;;;;;5016571;28;20511;-66
2022/06/19 04:29:10;;;;;;;13.40;6.23;;;22.50;99.90;;;;;;5016202;28;20455;-65
2022/06/19 04:31:37;;;;;;;13.50;5.90;;;22.50;99.90;;;;;;5016446;28;20472;-65
2022/06/19 04:34:04;;;;;;;16.70;5.07;;;22.50;99.90;;;;;;5016591;28;20453;-65
2022/06/19 04:36:33;;;;;;;15.87;5.20;;;22.60;99.90;;;;;;5016532;28;20456;-65
2022/06/19 04:39:00;;;;;;;10.57;5.57;;;22.60;99.90;;;;;;5016234;28;20480;-66
2022/06/19 04:41:29;;;;;;;10.40;5.00;;;22.70;99.90;;;;;;5015834;28;20477;-66
2022/06/19 04:43:57;;;;;;;13.13;6.70;;;22.70;99.90;;;;;;5016734;28;20543;-66
2022/06/19 04:46:25;;;;;;;11.57;4.73;;;22.80;99.90;;;;;;5016157;28;20457;-66
2022/06/19 04:48:52;;;;;;;12.83;5.97;;;22.80;99.90;;;;;;5016242;28;20460;-66
2022/06/19 04:51:20;;;;;;;8.40;5.07;;;22.90;99.90;;;;;;5016108;28;20477;-66
2022/06/19 04:53:48;;;;;;;13.07;5.20;;;23.00;99.60;;;;;;5015917;28;20452;-66
2022/06/19 04:56:18;;;;;;;13.93;5.30;;;23.00;99.50;;;;;;5016065;28;20453;-66
2022/06/19 04:58:45;;;;;;;12.40;5.07;;;23.10;99.50;;;;;;5015778;28;20983;-66
2022/06/19 05:01:24;;;;;;;12.17;4.70;;;23.10;99.90;;;;;;5015731;28;20484;-67
2022/06/19 05:03:52;;;;;;;9.60;4.97;;;23.10;99.70;;;;;;5016288;28;20441;-67
2022/06/19 05:06:19;;;;;;;13.33;5.27;;;23.10;99.90;;;;;;5016018;28;20480;-66
2022/06/19 05:08:45;;;;;;;11.87;5.30;;;23.20;99.90;;;;;;5016529;28;20453;-66
2022/06/19 05:11:14;;;;;;;11.33;4.57;;;23.20;99.70;;;;;;5015745;28;20480;-66
2022/06/19 05:13:42;;;;;;;6.33;4.53;;;23.30;99.10;;;;;;5015809;28;20480;-66
2022/06/19 05:16:11;;;;;;;13.70;4.87;;;23.40;99.20;;;;;;5015597;28;20503;-66
2022/06/19 05:18:38;;;;;;;13.47;4.23;;;23.40;98.80;;;;;;5015491;28;20499;-66
2022/06/19 05:21:06;;;;;;;12.90;5.17;;;23.60;98.50;;;;;;5015513;28;20527;-67
2022/06/19 05:23:33;;;;;;;10.83;4.43;;;23.70;98.50;;;;;;5015581;28;20449;-67
2022/06/19 05:26:02;;;;;;;11.50;4.97;;;23.80;98.20;;;;;;5015057;28;20449;-66
2022/06/19 05:28:31;;;;;;;17.90;5.83;;;24.00;98.10;;;;;;5015343;28;20476;-65
2022/06/19 05:30:59;;;;;;;10.87;5.10;;;24.00;97.70;;;;;;5015485;28;20527;-66
2022/06/19 05:33:26;;;;;;;12.40;5.67;;;24.20;97.80;;;;;;5015105;28;20959;-66
2022/06/19 05:35:53;;;;;;;10.20;4.73;;;24.20;97.50;;;;;;5015059;28;20453;-66
2022/06/19 05:38:20;;;;;;;12.83;4.60;;;24.40;97.80;;;;;;5015280;28;20871;-66
2022/06/19 05:40:49;;;;;;;12.50;5.33;;;24.50;97.80;;;;;;5015718;28;20476;-65
2022/06/19 05:43:16;;;;;;;11.40;4.40;;;24.60;97.00;;;;;;5015114;28;20457;-67
2022/06/19 05:45:51;;;;;;;13.33;4.47;;;24.60;96.60;;;;;;5015270;28;20456;-66
2022/06/19 05:48:18;;;;;;;14.70;5.03;;;24.70;96.30;;;;;;5015470;28;20490;-67
2022/06/19 05:50:45;;;;;;;11.60;5.87;;;24.90;96.10;;;;;;5014878;28;20477;-66
2022/06/19 05:53:12;;;;;;;8.70;4.60;;;25.00;95.30;;;;;;5014699;28;20464;-66
2022/06/19 05:55:39;;;;;;;13.10;4.70;;;24.90;95.10;;;;;;5014974;28;20460;-66
2022/06/19 05:58:05;;;;;;;13.97;5.47;;;25.00;95.00;;;;;;5014774;28;20457;-67
2022/06/19 06:00:32;;;;;;;9.27;5.27;;;25.10;95.30;;;;;;5014727;28;20488;-66
2022/06/19 06:03:00;;;;;;;9.57;5.20;;;25.20;95.20;;;;;;5015004;28;20449;-66
2022/06/19 06:05:27;;;;;;;7.53;4.43;;;25.30;94.60;;;;;;5014066;28;20453;-66
2022/06/19 06:07:54;;;;;;;11.03;4.87;;;25.40;94.20;;;;;;5014757;28;20460;-66
2022/06/19 06:10:21;;;;;;;14.47;6.30;;;25.70;94.20;;;;;;5014515;28;20460;-66
2022/06/19 06:12:48;;;;;;;12.00;4.93;;;25.80;93.70;;;;;;5014552;28;20503;-66
2022/06/19 06:15:15;;;;;;;13.10;5.07;;;26.00;93.20;;;;;;5014585;28;20453;-66
2022/06/19 06:17:41;;;;;;;12.73;4.53;;;26.10;91.80;;;;;;5014743;28;20457;-67
2022/06/19 06:20:10;;;;;;;11.70;3.97;;;26.30;91.60;;;;;;5014323;28;20481;-67
2022/06/19 06:22:37;;;;;;;17.33;5.67;;;26.40;90.90;;;;;;5013957;28;20978;-66
2022/06/19 06:25:05;;;;;;;16.00;6.20;;;26.50;90.90;;;;;;5014250;28;20461;-67
2022/06/19 06:27:31;;;;;;;9.73;4.43;;;26.60;90.20;;;;;;5014557;28;20453;-66
2022/06/19 06:29:58;;;;;;;19.07;4.80;;;26.70;90.10;;;;;;5015251;28;20932;-65
2022/06/19 06:32:25;;;;;;;13.70;5.80;;;26.90;90.10;;;;;;5015393;28;21002;-66
2022/06/19 06:34:52;;;;;;;16.97;4.80;;;27.10;90.50;;;;;;5014839;28;20801;-66
2022/06/19 06:37:20;;;;;;;13.53;5.27;;;27.30;89.50;;;;;;5014233;28;20461;-66
2022/06/19 06:39:47;;;;;;;16.93;4.40;;;27.70;88.70;;;;;;5014161;28;20477;-66
2022/06/19 06:42:13;;;;;;;12.80;5.17;;;28.00;87.40;;;;;;5022465;28;20543;-66
2022/06/19 06:44:40;;;;;;;11.70;4.30;;;28.40;86.20;;;;;;5027727;28;20507;-66
2022/06/19 06:47:07;;;;;;;11.37;4.70;;;28.70;84.60;;;;;;5017167;28;20453;-65
2022/06/19 06:49:34;;;;;;;16.20;5.47;;;29.10;82.10;;;;;;5014047;28;20463;-66
2022/06/19 06:52:01;;;;;;;10.70;4.07;;;29.40;79.30;;;;;;5013746;28;20980;-67
2022/06/19 06:54:29;;;;;;;13.07;4.50;;;29.60;79.60;;;;;;5013918;28;20464;-66
2022/06/19 06:56:56;;;;;;;12.33;5.43;;;29.80;77.90;;;;;;5013752;28;20948;-66
2022/06/19 06:59:23;;;;;;;10.47;4.80;;;30.10;78.00;;;;;;5014011;28;20500;-66
2022/06/19 07:01:50;;;;;;;19.50;5.83;;;30.40;75.70;;;;;;5013537;28;20492;-66
2022/06/19 07:04:16;;;;;;;15.50;4.60;;;30.90;73.70;;;;;;5013640;28;20453;-66
2022/06/19 07:06:43;;;;;;;15.60;4.80;;;31.30;71.80;;;;;;5013807;28;20861;-67
2022/06/19 07:09:10;;;;;;;12.73;5.30;;;31.80;69.50;;;;;;5013770;28;20456;-68
2022/06/19 07:11:41;;;;;;;12.60;4.43;;;32.30;68.30;;;;;;5012738;28;20443;-68
2022/06/19 07:14:09;;;;;;;10.53;4.60;;;32.80;65.60;;;;;;5013667;28;20441;-67
2022/06/19 07:16:36;;;;;;;14.33;4.67;;;33.40;64.20;;;;;;5014222;28;20935;-67
2022/06/19 07:19:03;;;;;;;13.23;4.50;;;33.80;62.40;;;;;;5017017;28;20476;-68
2022/06/19 07:21:29;;;;;;;13.33;4.37;;;34.20;62.00;;;;;;5017977;28;20475;-67
2022/06/19 07:23:56;;;;;;;10.00;4.60;;;34.50;61.40;;;;;;5017673;28;20479;-68
2022/06/19 07:26:26;;;;;;;14.67;5.17;;;34.80;60.60;;;;;;5017700;28;20460;-68
2022/06/19 07:28:54;;;;;;;8.30;4.43;;;35.00;59.60;;;;;;5017658;28;20452;-68
2022/06/19 07:31:21;;;;;;;12.77;4.30;;;35.40;59.50;;;;;;5017540;28;20486;-68
2022/06/19 07:33:48;;;;;;;13.03;5.17;;;35.60;57.60;;;;;;5017653;28;20467;-68
2022/06/19 07:36:17;;;;;;;12.23;5.60;;;35.90;57.20;;;;;;5017344;28;20943;-70
2022/06/19 07:38:44;;;;;;;12.37;4.60;;;36.10;56.40;;;;;;5017493;28;20471;-71
2022/06/19 07:41:11;;;;;;;18.77;6.43;;;35.90;56.30;;;;;;5017782;28;20480;-71
2022/06/19 07:43:38;;;;;;;10.00;4.50;;;35.50;56.70;;;;;;5017604;28;20456;-67
2022/06/19 07:46:09;;;;;;;17.40;6.00;;;35.30;56.30;;;;;;5018186;28;20456;-68
2022/06/19 07:51:21;;;;;;;9.80;4.87;;;34.80;57.20;;;;;;5017490;28;20510;-67
2022/06/19 07:53:47;;;;;;;8.10;4.30;;;34.90;57.50;;;;;;5016981;28;20962;-67
2022/06/19 07:56:14;;;;;;;15.10;5.70;;;35.10;57.40;;;;;;5016964;28;20456;-68
2022/06/19 07:58:41;;;;;;;13.43;5.60;;;35.50;57.00;;;;;;5016836;28;20456;-68
2022/06/19 08:01:09;;;;;;;16.73;5.50;;;35.80;55.80;;;;;;5017002;28;20483;-67
2022/06/19 08:03:35;;;;;;;11.73;4.30;;;36.10;56.40;;;;;;5017086;28;20456;-68
2022/06/19 08:06:02;;;;;;;9.87;5.10;;;36.50;55.90;;;;;;5017129;28;20456;-70
2022/06/19 08:08:32;;;;;;;14.73;4.63;;;36.90;55.10;;;;;;5017165;28;20456;-68
2022/06/19 08:11:00;;;;;;;12.30;4.90;;;37.30;54.40;;;;;;5017055;28;20468;-68
2022/06/19 08:13:30;;;;;;;16.57;5.30;;;37.70;54.00;;;;;;5017139;28;20451;-68
2022/06/19 08:15:59;;;;;;;14.20;4.83;;;37.90;53.00;;;;;;5016339;28;21001;-68
2022/06/19 08:18:27;;;;;;;10.77;4.63;;;38.20;54.50;;;;;;5016611;28;20539;-68
2022/06/19 08:20:54;;;;;;;8.47;5.20;;;38.40;53.30;;;;;;5016596;28;20487;-68
2022/06/19 08:23:22;;;;;;;12.90;4.90;;;38.70;52.60;;;;;;5016924;28;20486;-68
2022/06/19 08:25:49;;;;;;;10.47;5.40;;;39.10;51.90;;;;;;5016626;28;20456;-68
2022/06/19 08:28:18;;;;;;;12.70;5.50;;;38.90;52.10;;;;;;5016002;28;20510;-68
2022/06/19 08:30:45;;;;;;;12.77;5.00;;;39.50;51.10;;;;;;5016537;28;20560;-68
2022/06/19 08:33:12;;;;;;;8.43;4.80;;;39.90;50.20;;;;;;5017029;28;20201;-68
2022/06/19 08:35:43;;;;;;;8.87;4.87;;;40.30;48.70;;;;;;5016729;28;20197;-67
2022/06/19 08:38:15;;;;;;;14.80;5.80;;;40.50;48.60;;;;;;5016248;28;20190;-67
2022/06/19 08:41:01;;;;;;;10.50;5.60;;;40.60;47.70;;;;;;5016351;28;20218;-67
2022/06/19 08:43:50;;;;;;;9.33;6.10;;;40.80;48.50;;;;;;5016334;28;20233;-67
2022/06/19 08:46:26;;;;;;;9.38;5.70;;;41.10;47.60;;;;;;5016365;28;20185;-68
2022/06/19 08:49:11;;;;;;;9.57;5.20;;;41.50;47.50;;;;;;5015948;28;20703;-67
2022/06/19 08:51:49;;;;;;;7.57;5.22;;;41.90;46.90;;;;;;5015829;28;20218;-67
2022/06/19 08:54:33;;;;;;;9.68;5.43;;;42.10;46.20;;;;;;5016215;28;20186;-67
2022/06/19 08:57:11;;;;;;;15.02;6.07;;;42.50;46.00;;;;;;5015960;28;20185;-67
2022/06/19 08:59:52;;;;;;;9.23;5.43;;;42.70;46.60;;;;;;5015978;28;20251;-66
2022/06/19 09:02:32;;;;;;;10.43;6.40;;;42.90;46.70;;;;;;5015916;28;20229;-66
2022/06/19 09:08:09;;;;;;;12.07;6.53;;;43.20;43.90;;;;;;5016418;28;20284;-66
2022/06/19 09:10:45;;;;;;;14.10;7.40;;;43.00;44.80;;;;;;5016433;28;20267;-66
2022/06/19 09:13:36;;;;;;;10.95;6.07;;;42.50;44.20;;;;;;5015988;28;20244;-66
2022/06/19 09:16:11;;;;;;;11.13;6.03;;;42.20;43.80;;;;;;5016097;28;20236;-66
2022/06/19 09:18:40;;;;;;;10.95;7.15;;;42.40;45.90;;;;;;5015657;28;20546;-66
2022/06/19 09:21:11;;;;;;;8.65;6.20;;;42.90;45.10;;;;;;5015786;28;20284;-67
2022/06/19 09:24:02;;;;;;;8.85;6.43;;;42.70;43.50;;;;;;5015887;28;20264;-67
2022/06/19 09:26:35;;;;;;;8.63;6.50;;;43.00;42.10;;;;;;5016202;28;20229;-67
2022/06/19 09:29:08;;;;;;;10.85;6.25;;;43.50;40.30;;;;;;5016095;28;20258;-67
2022/06/19 09:31:42;;;;;;;7.40;6.10;;;44.00;38.20;;;;;;5015779;28;20356;-67
2022/06/19 09:34:13;;;;;;;10.52;6.57;;;44.00;37.60;;;;;;5015486;28;20629;-67
2022/06/19 09:36:44;;;;;;;13.38;5.72;;;44.30;37.40;;;;;;5015438;28;20182;-67
2022/06/19 09:39:19;;;;;;;10.48;5.65;;;44.50;38.10;;;;;;5015463;28;20193;-67
2022/06/19 09:41:49;;;;;;;15.82;5.63;;;44.80;36.90;;;;;;5014562;28;20225;-67
2022/06/19 09:44:23;;;;;;;7.93;5.03;;;45.20;35.60;;;;;;5015792;28;20197;-67
2022/06/19 09:46:56;;;;;;;16.95;6.30;;;45.40;35.30;;;;;;5015144;28;20592;-67
2022/06/19 09:49:30;;;;;;;12.68;5.43;;;45.40;34.50;;;;;;5015540;28;20186;-68
2022/06/19 09:52:02;;;;;;;9.52;6.10;;;44.90;34.70;;;;;;5015190;28;20228;-66
2022/06/19 09:54:35;;;;;;;8.15;5.78;;;44.80;36.80;;;;;;5015251;28;20182;-66
2022/06/19 09:57:09;;;;;;;11.50;4.97;;;44.70;36.50;;;;;;5015240;28;20204;-66
2022/06/19 09:59:41;;;;;;;4.47;3.80;;;44.80;35.30;;;;;;5015012;28;20251;-66
2022/06/19 10:02:15;;;;;;;6.07;4.28;;;45.00;35.20;;;;;;5014658;28;20248;-65
2022/06/19 10:04:46;;;;;;;7.47;5.32;;;45.50;33.20;;;;;;5015263;28;20193;-68
2022/06/19 10:07:23;;;;;;;12.15;5.45;;;45.80;34.00;;;;;;5015706;28;20178;-67
2022/06/19 10:09:54;;;;;;;6.75;4.55;;;46.10;32.40;;;;;;5015109;28;20185;-67
2022/06/19 10:12:29;;;;;;;5.47;4.13;;;46.00;30.80;;;;;;5014758;28;20221;-67
2022/06/19 10:15:02;;;;;;;5.72;4.60;;;45.70;30.40;;;;;;5014883;28;20196;-67
2022/06/19 10:17:35;;;;;;;11.25;5.20;;;45.00;30.60;;;;;;5014629;28;20204;-67
2022/06/19 10:20:12;;;;;;;10.48;4.90;;;44.50;31.30;;;;;;5014726;28;20206;-66
2022/06/19 10:22:52;;;;;;;11.73;4.78;;;44.00;31.60;;;;;;5014689;28;20182;-67
2022/06/19 10:25:41;;;;;;;11.20;5.35;;;43.90;32.50;;;;;;5014672;28;20177;-67
2022/06/19 10:28:23;;;;;;;5.15;4.43;;;44.10;34.00;;;;;;5014492;28;20637;-68
2022/06/19 10:30:59;;;;;;;9.55;4.35;;;44.50;32.90;;;;;;5014510;28;20213;-68
2022/06/19 10:33:37;;;;;;;10.35;4.78;;;44.70;30.70;;;;;;5014557;28;20185;-66
2022/06/19 10:36:15;;;;;;;10.55;3.90;;;44.30;30.60;;;;;;5014824;28;20182;-67
2022/06/19 10:38:55;;;;;;;10.57;5.32;;;44.00;31.00;;;;;;5014453;28;20190;-66
2022/06/19 10:44:29;;;;;;;14.32;5.47;;;43.30;30.70;;;;;;4999448;28;20662;-67
2022/06/19 10:47:06;;;;;;;7.60;4.65;;;43.00;31.50;;;;;;5021476;28;20182;-66
2022/06/19 10:49:41;;;;;;;6.88;4.97;;;42.90;31.40;;;;;;5024210;28;20182;-67
2022/06/19 10:52:15;;;;;;;8.20;4.90;;;42.80;31.80;;;;;;5014054;28;20704;-66
2022/06/19 10:55:06;;;;;;;10.00;5.80;;;42.90;32.00;;;;;;5014515;28;20253;-67
2022/06/19 10:57:48;;;;;;;8.23;5.28;;;42.90;31.40;;;;;;5014085;28;20182;-66
2022/06/19 11:00:15;;;;;;;14.48;5.50;;;43.00;31.50;;;;;;5013560;28;20462;-66
2022/06/19 11:05:37;;;;;;;11.73;5.90;;;42.50;32.10;;;;;;5013923;28;20629;-67
2022/06/19 11:08:04;;;;;;;12.48;5.40;;;42.50;32.80;;;;;;5013972;28;20181;-66
2022/06/19 11:10:37;;;;;;;8.35;5.22;;;42.70;33.30;;;;;;5014146;28;20194;-67
2022/06/19 11:13:05;;;;;;;9.60;4.95;;;42.90;31.90;;;;;;5014030;28;20181;-67
2022/06/19 11:15:34;;;;;;;12.73;6.43;;;42.90;32.20;;;;;;5014014;28;20197;-66
2022/06/19 11:18:14;;;;;;;8.93;5.50;;;43.10;33.30;;;;;;5013913;28;20209;-67
2022/06/19 11:20:44;;;;;;;8.35;4.72;;;43.20;35.80;;;;;;5013737;28;20221;-67
2022/06/19 11:23:22;;;;;;;8.55;4.95;;;43.20;33.90;;;;;;5013851;28;20220;-67
2022/06/19 11:25:59;;;;;;;10.85;4.70;;;42.90;31.90;;;;;;5013781;28;20181;-67
2022/06/19 11:28:43;;;;;;;6.63;4.68;;;42.50;33.70;;;;;;5013605;28;20653;-67
2022/06/19 11:31:14;;;;;;;9.68;6.07;;;42.30;35.20;;;;;;5013743;28;20213;-67
2022/06/19 11:33:42;;;;;;;10.75;5.50;;;42.00;34.90;;;;;;5013756;28;20178;-67
2022/06/19 11:36:26;;;;;;;10.18;5.97;;;41.60;35.50;;;;;;5013868;28;20240;-67
2022/06/19 11:38:54;;;;;;;10.15;5.82;;;41.40;36.90;;;;;;5013884;28;20608;-67
2022/06/19 11:41:29;;;;;;;6.63;5.20;;;41.30;37.80;;;;;;5013311;28;20710;-67
2022/06/19 11:44:13;;;;;;;9.48;6.40;;;41.20;37.20;;;;;;5014016;28;20181;-67
2022/06/19 11:46:46;;;;;;;10.93;5.38;;;41.20;36.50;;;;;;5013390;28;20201;-65
2022/06/19 11:49:20;;;;;;;11.55;6.72;;;41.20;37.80;;;;;;5014077;28;20190;-65
2022/06/19 11:51:47;;;;;;;6.83;5.13;;;40.80;36.20;;;;;;5013468;28;20217;-65
2022/06/19 11:54:16;;;;;;;10.07;6.00;;;40.60;38.00;;;;;;5013720;28;20197;-65
2022/06/19 11:56:43;;;;;;;9.23;5.90;;;40.60;37.90;;;;;;5013291;28;20669;-65
2022/06/19 11:59:27;;;;;;;9.07;5.73;;;40.60;37.90;;;;;;5013626;28;20202;-65
2022/06/19 12:01:54;;;;;;;7.07;5.80;;;40.50;37.40;;;;;;5012980;28;20241;-65
2022/06/19 12:04:28;;;;;;;7.27;5.83;;;40.20;39.40;;;;;;5015635;28;20212;-69
2022/06/19 12:06:59;;;;;;;6.63;5.27;;;40.10;40.10;;;;;;5017193;28;20229;-66
2022/06/19 12:09:33;;;;;;;9.43;5.90;;;40.20;40.60;;;;;;5017131;28;20197;-66
2022/06/19 12:12:05;;;;;;;12.60;6.00;;;40.20;40.90;;;;;;5017217;28;20213;-66
2022/06/19 12:14:36;;;;;;;11.40;5.67;;;40.10;39.70;;;;;;5017169;28;20190;-66
2022/06/19 12:17:20;;;;;;;9.63;6.53;;;39.80;40.20;;;;;;5017004;28;20277;-67
2022/06/19 12:19:58;;;;;;;14.33;6.73;;;39.80;39.80;;;;;;5016631;28;20190;-68
2022/06/19 12:22:34;;;;;;;7.13;6.43;;;39.60;42.00;;;;;;5016683;28;20472;-67
2022/06/19 12:25:08;;;;;;;7.43;6.17;;;39.60;40.90;;;;;;5016782;28;20232;-67
2022/06/19 12:27:41;;;;;;;15.53;7.43;;;39.70;39.70;;;;;;5016656;28;20182;-67
2022/06/19 12:30:17;;;;;;;7.20;6.10;;;39.80;41.20;;;;;;5016773;28;20190;-67
2022/06/19 12:32:46;;;;;;;9.33;6.90;;;39.60;41.30;;;;;;5016680;28;20185;-67
2022/06/19 12:35:32;;;;;;;11.57;6.67;;;39.60;41.00;;;;;;5016165;28;20679;-66
2022/06/19 12:37:59;;;;;;;10.07;5.90;;;39.50;40.70;;;;;;5016455;28;20437;-67
2022/06/19 12:40:32;;;;;;;11.37;6.43;;;39.20;41.90;;;;;;5016538;28;20476;-67
2022/06/19 12:43:05;;;;;;;12.00;6.87;;;39.10;41.70;;;;;;5016537;28;20445;-67
2022/06/19 12:45:45;;;;;;;11.83;5.50;;;39.10;41.50;;;;;;5016409;28;20444;-67
2022/06/19 12:48:35;;;;;;;8.70;6.50;;;38.70;41.40;;;;;;5016828;28;20468;-67
2022/06/19 12:51:08;;;;;;;8.73;6.23;;;38.50;41.90;;;;;;5015778;28;20829;-67
2022/06/19 12:54:05;;;;;;;13.80;6.83;;;38.60;42.00;;;;;;5016287;28;20441;-67
2022/06/19 12:56:47;;;;;;;9.47;6.90;;;38.60;43.10;;;;;;5014001;28;20459;-67
2022/06/19 12:59:40;;;;;;;9.70;6.00;;;38.90;42.20;;;;;;5016253;28;20441;-67
2022/06/19 13:02:16;;;;;;;12.30;6.40;;;39.00;42.10;;;;;;5015535;28;20982;-67
2022/06/19 13:05:00;;;;;;;9.67;6.57;;;39.00;41.60;;;;;;5016116;28;20440;-67
2022/06/19 13:07:36;;;;;;;9.50;5.83;;;38.90;41.90;;;;;;5015956;28;20444;-67
2022/06/19 13:10:26;;;;;;;7.53;6.67;;;38.80;43.40;;;;;;5016276;28;20436;-67
2022/06/19 13:13:06;;;;;;;17.17;6.37;;;38.90;43.50;;;;;;5015939;28;20503;-67
2022/06/19 13:15:56;;;;;;;7.83;7.03;;;38.80;41.50;;;;;;5015775;28;20843;-67
2022/06/19 13:18:39;;;;;;;7.10;6.40;;;38.50;43.10;;;;;;5015945;28;20444;-67
2022/06/19 13:21:17;;;;;;;8.83;6.87;;;38.50;43.10;;;;;;5015780;28;20978;-67
2022/06/19 13:23:53;;;;;;;12.23;6.43;;;38.40;42.50;;;;;;5015770;28;20440;-67
2022/06/19 13:29:28;;;;;;;9.33;6.40;;;38.70;44.00;;;;;;5015728;28;20475;-67
2022/06/19 13:31:59;;;;;;;11.07;6.27;;;38.70;43.50;;;;;;5015324;28;20873;-67
2022/06/19 13:34:47;;;;;;;18.80;6.93;;;38.70;44.30;;;;;;5015430;28;20433;-68
2022/06/19 13:37:18;;;;;;;7.40;6.37;;;38.90;43.30;;;;;;5015509;28;20575;-67
2022/06/19 13:39:52;;;;;;;8.97;6.93;;;38.90;42.50;;;;;;5015399;28;20205;-67
2022/06/19 13:42:43;;;;;;;8.23;6.73;;;39.00;42.30;;;;;;5014878;28;20615;-67
2022/06/19 13:45:24;;;;;;;10.00;6.60;;;39.00;42.70;;;;;;5004677;28;20452;-67
2022/06/19 13:47:58;;;;;;;8.83;6.50;;;38.90;43.70;;;;;;5015171;28;20651;-67
2022/06/19 13:50:32;;;;;;;9.70;6.03;;;38.90;43.50;;;;;;5015129;28;20436;-67
2022/06/19 13:53:04;;;;;;;12.27;6.43;;;38.80;43.50;;;;;;5015335;28;20181;-67
2022/06/19 13:55:44;;;;;;;11.13;6.90;;;38.80;43.50;;;;;;5015423;28;20465;-67
2022/06/19 13:58:19;;;;;;;13.27;6.97;;;38.60;42.90;;;;;;5015100;28;20919;-67
2022/06/19 14:00:51;;;;;;;10.40;7.17;;;38.60;43.70;;;;;;5015111;28;20478;-67
2022/06/19 14:06:56;;;;;;;10.43;6.37;;;38.70;43.60;;;;;;4988523;28;20487;-67
2022/06/19 14:09:29;;;;;;;10.43;7.40;;;38.50;43.70;;;;;;5014967;28;20498;-67
2022/06/19 14:12:06;;;;;;;9.40;6.20;;;38.30;44.30;;;;;;5015779;28;20535;-67
2022/06/19 14:14:38;;;;;;;9.40;7.23;;;38.20;43.70;;;;;;5014916;28;20475;-67
2022/06/19 14:17:15;;;;;;;8.33;7.10;;;38.20;43.60;;;;;;5014902;28;20437;-67
2022/06/19 14:19:46;;;;;;;7.60;6.00;;;38.30;43.40;;;;;;5014842;28;20495;-67
2022/06/19 14:22:21;;;;;;;8.60;6.83;;;38.10;42.70;;;;;;5032601;28;20507;-67
2022/06/19 14:24:59;;;;;;;15.30;7.13;;;37.80;42.70;;;;;;5027925;28;20436;-67
2022/06/19 14:27:43;;;;;;;11.60;7.10;;;37.90;44.40;;;;;;5014870;28;20448;-67
2022/06/19 14:30:12;;;;;;;10.37;6.90;;;37.90;44.20;;;;;;5014776;28;20441;-67
2022/06/19 14:32:52;;;;;;;11.67;7.10;;;38.00;45.00;;;;;;5014365;28;20471;-67
2022/06/19 14:35:29;;;;;;;13.30;7.23;;;38.20;44.00;;;;;;5014999;28;20456;-67
2022/06/19 14:38:20;;;;;;;7.87;5.97;;;38.40;43.40;;;;;;5014587;28;20498;-67
2022/06/19 14:41:10;;;;;;;10.33;6.27;;;38.60;42.60;;;;;;5013993;28;20971;-67
2022/06/19 14:43:56;;;;;;;11.53;6.47;;;38.70;42.50;;;;;;5014632;28;20491;-67
2022/06/19 14:46:47;;;;;;;8.80;7.33;;;38.80;41.70;;;;;;5013474;28;20448;-67
2022/06/19 14:49:36;;;;;;;9.77;6.90;;;39.00;41.40;;;;;;5014209;28;20448;-67
2022/06/19 14:52:12;;;;;;;12.90;6.70;;;39.20;40.20;;;;;;5014227;28;20573;-67
2022/06/19 14:54:57;;;;;;;8.37;6.60;;;39.20;39.70;;;;;;5014246;28;20189;-67
2022/06/19 14:57:28;;;;;;;9.50;6.50;;;39.30;41.10;;;;;;5013933;28;20676;-67
2022/06/19 14:59:59;;;;;;;11.37;6.90;;;39.10;40.90;;;;;;5014259;28;20440;-68
2022/06/19 15:02:34;;;;;;;8.70;6.30;;;39.20;42.30;;;;;;5014011;28;20223;-67
2022/06/19 15:05:08;;;;;;;10.13;6.87;;;39.20;40.50;;;;;;5014884;28;20470;-67
2022/06/19 15:07:41;;;;;;;9.43;6.50;;;39.20;40.80;;;;;;5014062;28;20504;-66
2022/06/19 15:10:25;;;;;;;11.07;6.93;;;39.20;41.60;;;;;;5014014;28;20178;-67
2022/06/19 15:13:21;;;;;;;10.90;6.40;;;39.30;42.00;;;;;;5013631;28;20236;-67
2022/06/19 15:15:52;;;;;;;13.73;7.57;;;39.20;39.60;;;;;;5013632;28;20731;-67
2022/06/19 15:18:23;;;;;;;12.13;6.77;;;39.20;39.60;;;;;;5013975;28;20440;-67
2022/06/19 15:21:23;;;;;;;10.30;5.93;;;39.10;42.10;;;;;;5014145;28;20225;-66
2022/06/19 15:23:49;;;;;;;11.57;6.97;;;39.10;42.40;;;;;;5013765;28;20911;-67
2022/06/19 15:26:38;;;;;;;10.80;6.83;;;39.00;42.60;;;;;;5013559;28;20656;-67
2022/06/19 15:29:38;;;;;;;8.03;6.40;;;38.80;41.70;;;;;;5002847;28;20201;-67
2022/06/19 15:32:51;;;;;;;11.60;7.73;;;38.80;42.50;;;;;;5013654;28;20472;-67
2022/06/19 15:35:58;;;;;;;8.37;7.47;;;38.70;39.90;;;;;;5013555;28;20432;-67
2022/06/19 15:39:00;;;;;;;8.80;7.27;;;38.60;43.40;;;;;;5014691;28;20444;-66
2022/06/19 15:41:52;;;;;;;12.90;6.00;;;38.50;42.00;;;;;;5017386;28;20484;-66
2022/06/19 15:45:13;;;;;;;12.03;6.60;;;38.30;42.90;;;;;;5017591;28;20446;-66
2022/06/19 15:47:54;;;;;;;15.30;6.70;;;38.40;43.20;;;;;;4937930;29;20511;-66
2022/06/19 15:50:26;;;;;;;9.17;6.43;;;38.40;43.00;;;;;;4937666;29;20455;-67
2022/06/19 15:52:55;;;;;;;12.40;6.90;;;38.50;42.40;;;;;;4994705;28;20531;-66
2022/06/19 15:55:27;;;;;;;8.47;6.07;;;38.40;42.60;;;;;;5017148;28;20460;-66
2022/06/19 15:57:59;;;;;;;10.97;7.13;;;38.30;42.00;;;;;;5017224;28;20783;-66
2022/06/19 16:00:32;;;;;;;11.37;6.80;;;38.20;41.70;;;;;;5016913;28;20456;-67
2022/06/19 16:03:05;;;;;;;8.63;6.50;;;38.20;42.20;;;;;;5017507;28;20460;-67
2022/06/19 16:05:39;;;;;;;7.10;6.40;;;38.30;43.00;;;;;;5017659;28;20467;-67
2022/06/19 16:08:08;;;;;;;7.60;6.50;;;38.20;43.40;;;;;;5017244;28;20455;-67
2022/06/19 16:10:45;;;;;;;15.70;6.30;;;38.20;43.50;;;;;;5016765;28;20932;-67
2022/06/19 16:13:23;;;;;;;12.13;6.77;;;38.10;42.90;;;;;;5016804;28;20447;-67
2022/06/19 16:16:06;;;;;;;7.00;6.30;;;38.20;43.30;;;;;;5017230;28;20440;-67
2022/06/19 16:18:34;;;;;;;9.27;6.23;;;38.00;43.40;;;;;;5017130;28;20494;-67
2022/06/19 16:21:02;;;;;;;10.33;6.30;;;38.00;43.00;;;;;;5016904;28;20498;-66
2022/06/19 16:23:39;;;;;;;8.20;7.03;;;38.00;43.20;;;;;;5016891;28;20455;-67
2022/06/19 16:26:07;;;;;;;8.57;6.00;;;37.90;44.30;;;;;;5017065;28;20436;-67
2022/06/19 16:28:37;;;;;;;9.90;7.03;;;37.80;43.30;;;;;;5016607;28;20467;-67
2022/06/19 16:31:06;;;;;;;10.13;6.40;;;37.70;43.70;;;;;;5016718;28;20471;-67
2022/06/19 16:33:44;;;;;;;11.10;6.63;;;37.50;43.50;;;;;;5016849;28;20503;-66
2022/06/19 16:44:36;;;;;;;9.33;6.33;;;36.80;44.60;;;;;;5016872;28;20463;-67
2022/06/19 16:47:05;;;;;;;8.33;5.93;;;36.70;44.90;;;;;;5016383;28;20436;-67
2022/06/19 16:49:34;;;;;;;7.93;5.53;;;36.70;45.00;;;;;;5016424;28;20840;-66
2022/06/19 16:52:04;;;;;;;6.50;5.90;;;36.60;44.60;;;;;;5016305;28;20468;-66
2022/06/19 16:54:38;;;;;;;6.37;5.70;;;36.60;45.90;;;;;;5016436;28;20536;-67
2022/06/19 16:57:11;;;;;;;9.60;5.50;;;36.50;43.80;;;;;;5015978;28;20436;-67
2022/06/19 16:59:40;;;;;;;8.10;6.37;;;36.50;43.70;;;;;;5016226;28;20452;-65
2022/06/19 17:02:13;;;;;;;17.00;6.43;;;36.30;42.90;;;;;;5015817;28;20480;-66
2022/06/19 17:04:41;;;;;;;9.30;6.87;;;36.10;43.10;;;;;;5016202;28;20436;-66
2022/06/19 17:07:08;;;;;;;9.03;6.20;;;36.00;43.50;;;;;;5016103;28;20460;-66
2022/06/19 17:09:37;;;;;;;15.73;6.60;;;35.90;44.30;;;;;;5016014;28;20456;-66
2022/06/19 17:12:07;;;;;;;7.40;6.60;;;35.90;45.40;;;;;;5015671;28;20476;-66
2022/06/19 17:14:37;;;;;;;10.37;6.10;;;35.90;45.20;;;;;;5016355;28;20436;-67
2022/06/19 17:17:10;;;;;;;9.40;5.63;;;35.80;44.80;;;;;;5016205;28;20436;-67
2022/06/19 17:19:52;;;;;;;8.83;6.03;;;35.90;45.10;;;;;;5015587;28;20935;-66
2022/06/19 17:22:20;;;;;;;9.60;6.20;;;35.80;44.10;;;;;;5015563;28;20521;-66
2022/06/19 17:24:53;;;;;;;12.93;7.40;;;35.70;44.90;;;;;;5015737;28;20502;-66
2022/06/19 17:27:23;;;;;;;13.77;6.30;;;35.70;45.00;;;;;;5015824;28;20441;-66
2022/06/19 17:29:54;;;;;;;8.40;6.50;;;35.70;45.50;;;;;;5015911;28;20856;-66
2022/06/19 17:32:31;;;;;;;13.17;6.40;;;35.60;46.30;;;;;;5015673;28;20468;-66
2022/06/19 17:35:02;;;;;;;11.37;7.10;;;35.60;45.50;;;;;;5015529;28;20467;-65
2022/06/19 17:37:33;;;;;;;9.57;6.40;;;35.40;45.10;;;;;;5015445;28;20931;-67
2022/06/19 17:40:01;;;;;;;12.63;5.80;;;35.20;44.80;;;;;;5015586;28;20441;-67